Time;durP1;ratioP1;P1;durP2;ratioP2;P2;SDS_P1;SDS_P2;PMS_P1;PMS_P2;Temp;Humidity;BMP_temperature;BMP_pressure;BME280_temperature;BME280_humidity;BME280_pressure;Samples;Min_cycle;Max_cycle;Signal;HPM_P1;HPM_P2
2021/09/24 00:02:17;;;;;;;7.45;4.13;;;;;;;14.57;72.66;100326.38;5089587;28;20031;-65
2021/09/24 00:04:43;;;;;;;6.80;3.65;;;;;;;14.47;73.34;100309.47;5089618;28;20028;-66
2021/09/24 00:07:08;;;;;;;8.18;4.20;;;;;;;14.53;73.07;100314.22;5106156;28;20076;-66
2021/09/24 00:09:33;;;;;;;8.60;3.85;;;;;;;14.50;73.30;100308.28;5093299;28;20040;-66
2021/09/24 00:11:59;;;;;;;6.97;3.85;;;;;;;14.41;73.51;100296.59;5093563;28;20452;-65
2021/09/24 00:14:25;;;;;;;9.13;4.10;;;;;;;14.43;74.01;100308.09;5093408;28;20110;-65
2021/09/24 00:16:50;;;;;;;7.93;3.92;;;;;;;14.41;73.95;100303.88;5109050;28;20040;-66
2021/09/24 00:19:16;;;;;;;9.10;3.58;;;;;;;14.46;73.95;100315.03;5093474;28;20059;-66
2021/09/24 00:21:41;;;;;;;7.57;3.40;;;;;;;14.45;74.05;100314.16;5093054;28;20379;-66
2021/09/24 00:24:07;;;;;;;9.57;4.45;;;;;;;14.41;73.46;100296.59;5093391;28;20024;-65
2021/09/24 00:26:32;;;;;;;4.53;3.28;;;;;;;14.36;73.10;100288.16;5093240;28;20028;-65
2021/09/24 00:29:00;;;;;;;5.60;3.58;;;;;;;14.36;72.96;100277.38;5093263;28;20057;-66
2021/09/24 00:31:27;;;;;;;7.15;4.35;;;;;;;14.40;73.08;100272.47;5093243;28;20023;-67
2021/09/24 00:33:55;;;;;;;8.50;3.45;;;;;;;14.45;72.59;100275.56;5092987;28;20054;-66
2021/09/24 00:36:21;;;;;;;8.93;3.92;;;;;;;14.44;72.67;100274.69;5092234;28;20055;-65
2021/09/24 00:38:46;;;;;;;7.15;3.53;;;;;;;14.44;72.30;100263.09;5092981;28;20031;-65
2021/09/24 00:41:12;;;;;;;8.90;3.65;;;;;;;14.42;72.85;100259.69;5092897;28;20060;-66
2021/09/24 00:43:37;;;;;;;6.13;3.35;;;;;;;14.41;72.57;100244.50;5092958;28;20031;-66
2021/09/24 00:46:03;;;;;;;5.95;3.38;;;;;;;14.43;72.25;100251.44;5092662;28;20032;-66
2021/09/24 00:48:29;;;;;;;7.43;3.88;;;;;;;14.39;72.15;100235.72;5092749;28;20036;-66
2021/09/24 00:50:55;;;;;;;7.05;3.60;;;;;;;14.39;72.09;100227.63;5092779;28;20031;-66
2021/09/24 00:53:22;;;;;;;8.23;3.58;;;;;;;14.39;71.99;100225.78;5092349;28;20031;-67
2021/09/24 00:55:48;;;;;;;7.68;3.35;;;;;;;14.43;71.55;100237.94;5092641;28;20028;-67
2021/09/24 00:58:13;;;;;;;4.75;3.15;;;;;;;14.42;72.03;100249.75;5091202;28;20032;-66
2021/09/24 01:00:39;;;;;;;8.23;3.67;;;;;;;14.38;71.63;100248.34;5092439;28;20028;-65
2021/09/24 01:03:04;;;;;;;6.60;3.20;;;;;;;14.37;71.92;100268.25;5092494;28;20024;-66
2021/09/24 01:05:30;;;;;;;6.90;3.42;;;;;;;14.44;72.07;100274.69;5092380;28;20534;-66
2021/09/24 01:07:56;;;;;;;6.75;3.30;;;;;;;14.44;71.99;100268.47;5092472;28;20533;-66
2021/09/24 01:10:22;;;;;;;7.30;3.10;;;;;;;14.44;72.49;100269.31;5092039;28;20038;-66
2021/09/24 01:12:48;;;;;;;4.68;3.33;;;;;;;14.39;72.59;100252.75;5092286;28;20124;-66
2021/09/24 01:15:16;;;;;;;8.43;3.83;;;;;;;14.43;72.17;100251.44;5092268;28;20472;-66
2021/09/24 01:17:42;;;;;;;8.43;3.75;;;;;;;14.35;72.45;100242.44;5091973;28;20023;-65
2021/09/24 01:20:11;;;;;;;6.35;3.85;;;;;;;14.39;72.49;100252.75;5089764;28;20067;-66
2021/09/24 01:22:37;;;;;;;7.47;4.10;;;;;;;14.41;72.36;100247.22;5092131;28;20020;-66
2021/09/24 01:25:05;;;;;;;8.63;4.07;;;;;;;14.27;72.30;100232.44;5092107;28;20103;-67
2021/09/24 01:27:31;;;;;;;8.85;4.50;;;;;;;14.32;72.56;100238.19;5090708;28;20441;-66
2021/09/24 01:29:57;;;;;;;10.50;4.43;;;;;;;14.30;72.54;100240.22;5107548;28;20107;-65
2021/09/24 01:32:24;;;;;;;9.38;4.85;;;;;;;14.29;72.57;100235.00;5092058;28;20157;-65
2021/09/24 01:34:49;;;;;;;8.55;4.72;;;;;;;14.24;73.19;100232.78;5091815;28;20658;-64
2021/09/24 01:37:15;;;;;;;9.90;5.07;;;;;;;14.20;73.44;100230.53;5091734;28;20221;-65
2021/09/24 01:39:41;;;;;;;8.77;4.65;;;;;;;14.15;73.75;100239.09;5091838;28;20696;-64
2021/09/24 01:42:07;;;;;;;7.97;4.70;;;;;;;14.11;74.06;100245.81;5091668;28;20028;-64
2021/09/24 01:44:33;;;;;;;8.80;4.95;;;;;;;14.11;74.12;100239.56;5091736;28;20028;-65
2021/09/24 01:46:58;;;;;;;12.07;4.70;;;;;;;14.04;74.71;100238.50;5091432;28;20043;-64
2021/09/24 01:49:24;;;;;;;9.05;4.07;;;;;;;14.06;74.53;100233.81;5091579;28;20028;-65
2021/09/24 01:51:50;;;;;;;7.47;4.43;;;;;;;14.01;74.49;100234.28;5091621;28;20032;-64
2021/09/24 01:54:18;;;;;;;7.30;4.60;;;;;;;13.93;74.88;100211.81;5089998;28;20118;-64
2021/09/24 01:56:44;;;;;;;7.82;3.90;;;;;;;13.96;75.10;100225.81;5091311;28;20028;-65
2021/09/24 01:59:09;;;;;;;8.93;3.92;;;;;;;13.93;74.96;100214.50;5091382;28;20024;-65
2021/09/24 02:01:35;;;;;;;7.82;3.97;;;;;;;13.89;74.80;100213.16;5091206;28;20148;-64
2021/09/24 02:04:02;;;;;;;7.75;4.22;;;;;;;13.93;75.11;100215.34;5091464;28;20380;-65
2021/09/24 02:06:28;;;;;;;6.72;3.90;;;;;;;13.92;74.91;100210.09;5091256;28;20032;-64
2021/09/24 02:08:54;;;;;;;8.20;4.13;;;;;;;13.90;75.32;100210.28;5091339;28;20498;-64
2021/09/24 02:11:19;;;;;;;9.05;4.70;;;;;;;13.94;74.76;100213.50;5091060;28;20075;-63
2021/09/24 02:13:45;;;;;;;9.95;5.10;;;;;;;13.90;74.73;100207.59;5090719;28;20036;-65
2021/09/24 02:16:11;;;;;;;7.55;4.68;;;;;;;13.90;75.14;100209.44;5089841;28;20031;-64
2021/09/24 02:18:38;;;;;;;8.13;5.10;;;;;;;13.76;75.47;100186.59;5091029;28;20046;-64
2021/09/24 02:21:04;;;;;;;11.02;5.63;;;;;;;13.87;75.08;100199.81;5091108;28;20111;-64
2021/09/24 02:23:30;;;;;;;9.30;5.10;;;;;;;13.81;75.00;100183.41;5090825;28;20156;-65
2021/09/24 02:25:55;;;;;;;9.35;5.10;;;;;;;13.84;75.42;100183.97;5090848;28;20023;-63
2021/09/24 02:28:21;;;;;;;11.50;5.78;;;;;;;13.83;75.04;100182.25;5091065;28;20032;-65
2021/09/24 02:30:46;;;;;;;7.72;5.15;;;;;;;13.79;75.55;100180.88;5090106;28;20050;-64
2021/09/24 02:33:12;;;;;;;6.75;5.35;;;;;;;13.77;76.03;100189.13;5090700;28;20043;-65
2021/09/24 02:35:37;;;;;;;10.70;5.45;;;;;;;13.74;76.01;100191.31;5090843;28;20032;-63
2021/09/24 02:38:03;;;;;;;8.07;4.82;;;;;;;13.64;76.26;100167.13;5090598;28;20056;-65
2021/09/24 02:40:29;;;;;;;9.32;5.55;;;;;;;13.71;76.63;100183.53;5090965;28;20098;-65
2021/09/24 02:42:54;;;;;;;8.95;5.43;;;;;;;13.62;76.75;100171.84;5090531;28;20056;-65
2021/09/24 02:45:20;;;;;;;11.18;5.43;;;;;;;13.63;77.09;100176.22;5090456;28;20039;-64
2021/09/24 02:47:45;;;;;;;7.95;4.97;;;;;;;13.63;77.01;100183.47;5090331;28;20078;-65
2021/09/24 02:50:11;;;;;;;11.55;5.43;;;;;;;13.63;76.97;100180.78;5090359;28;20032;-64
2021/09/24 02:52:37;;;;;;;13.82;5.75;;;;;;;13.57;77.35;100176.00;5090481;28;20082;-65
2021/09/24 02:55:05;;;;;;;12.50;5.80;;;;;;;13.59;77.67;100182.94;5089963;28;20478;-65
2021/09/24 02:57:30;;;;;;;10.95;5.95;;;;;;;13.55;77.78;100180.72;5089369;28;20020;-65
2021/09/24 02:59:56;;;;;;;8.88;5.70;;;;;;;13.54;77.99;100181.69;5089815;28;20478;-64
2021/09/24 03:02:21;;;;;;;9.15;5.75;;;;;;;13.56;78.21;100185.09;5089839;28;20398;-64
2021/09/24 03:04:46;;;;;;;12.68;5.13;;;;;;;13.55;77.82;100195.03;5089781;28;20032;-65
2021/09/24 03:07:12;;;;;;;10.77;5.80;;;;;;;13.52;77.83;100173.78;5085018;28;20031;-64
2021/09/24 03:09:38;;;;;;;9.80;5.40;;;;;;;13.51;78.10;100188.25;5089639;28;20044;-66
2021/09/24 03:12:04;;;;;;;11.35;4.63;;;;;;;13.47;78.44;100183.34;5089474;28;20036;-64
2021/09/24 03:14:30;;;;;;;11.52;5.00;;;;;;;13.46;77.87;100173.56;5118613;27;20027;-63
2021/09/24 03:16:55;;;;;;;8.85;4.97;;;;;;;13.45;78.48;100177.28;5089592;28;20413;-64
2021/09/24 03:19:21;;;;;;;7.50;5.22;;;;;;;13.38;78.57;100155.50;5089275;28;20228;-63
2021/09/24 03:21:50;;;;;;;9.95;4.97;;;;;;;13.35;78.66;100163.88;5088777;28;20024;-63
2021/09/24 03:24:16;;;;;;;8.32;5.15;;;;;;;13.32;78.77;100156.09;5088435;28;20020;-63
2021/09/24 03:26:42;;;;;;;7.95;4.97;;;;;;;13.37;78.96;100172.66;5088587;28;20511;-64
2021/09/24 03:29:09;;;;;;;8.52;5.15;;;;;;;13.34;79.04;100153.25;5087178;28;20024;-65
2021/09/24 03:31:37;;;;;;;9.07;5.47;;;;;;;13.33;78.95;100156.97;5085916;28;20035;-64
2021/09/24 03:34:03;;;;;;;9.85;6.20;;;;;;;13.38;79.31;100157.31;5087864;28;20032;-64
2021/09/24 03:36:29;;;;;;;10.48;5.15;;;;;;;13.36;78.77;100172.81;5088756;28;20034;-64
2021/09/24 03:38:54;;;;;;;9.63;6.20;;;;;;;13.36;79.11;100170.13;5088837;28;20024;-64
2021/09/24 03:41:20;;;;;;;12.82;6.32;;;;;;;13.37;78.06;100172.66;5089205;28;20035;-65
2021/09/24 03:43:45;;;;;;;9.35;6.20;;;;;;;13.37;77.94;100171.81;5092024;28;20032;-65
2021/09/24 03:46:11;;;;;;;13.80;5.65;;;;;;;13.31;78.34;100158.97;5093276;28;20020;-64
2021/09/24 03:48:37;;;;;;;12.00;6.70;;;;;;;13.30;78.25;100143.81;5093292;28;20056;-64
2021/09/24 03:51:02;;;;;;;10.80;5.25;;;;;;;13.30;78.03;100160.81;5093213;28;20396;-64
2021/09/24 03:53:28;;;;;;;11.00;5.57;;;;;;;13.29;78.73;100151.03;5091607;28;20013;-63
2021/09/24 03:55:53;;;;;;;10.60;5.68;;;;;;;13.27;79.05;100147.66;5093025;28;20562;-65
2021/09/24 03:58:20;;;;;;;12.90;5.82;;;;;;;13.24;79.19;100156.06;5092810;28;20074;-65
2021/09/24 04:00:46;;;;;;;10.27;5.10;;;;;;;13.22;79.19;100162.59;5092829;28;20204;-64
2021/09/24 04:03:11;;;;;;;9.65;5.10;;;;;;;13.21;79.59;100163.59;5092809;28;20095;-65
2021/09/24 04:05:37;;;;;;;7.13;5.22;;;;;;;13.17;79.73;100159.53;5092834;28;20024;-64
2021/09/24 04:08:02;;;;;;;8.45;4.78;;;;;;;13.12;79.54;100142.97;5092786;28;20472;-64
2021/09/24 04:10:28;;;;;;;7.45;4.32;;;;;;;13.17;79.33;100152.28;5106016;28;20119;-64
2021/09/24 04:12:53;;;;;;;8.18;4.55;;;;;;;13.17;78.91;100149.59;5090444;28;20565;-64
2021/09/24 04:15:18;;;;;;;9.63;5.15;;;;;;;13.15;79.38;100148.03;5091528;28;20031;-65
2021/09/24 04:17:44;;;;;;;9.07;5.13;;;;;;;13.13;79.35;100145.50;5091430;28;20027;-63
2021/09/24 04:20:10;;;;;;;11.77;4.93;;;;;;;13.12;79.32;100149.22;5091552;28;20114;-65
2021/09/24 04:22:36;;;;;;;7.20;4.50;;;;;;;13.13;79.90;100148.19;5091315;28;20494;-64
2021/09/24 04:25:03;;;;;;;6.78;4.30;;;;;;;13.10;79.69;100139.59;5091299;28;20028;-65
2021/09/24 04:27:29;;;;;;;7.85;4.30;;;;;;;13.08;79.87;100138.91;5090800;28;20519;-65
2021/09/24 04:29:55;;;;;;;9.02;4.95;;;;;;;13.05;79.59;100126.59;5089911;28;20077;-65
2021/09/24 04:32:20;;;;;;;7.45;4.68;;;;;;;13.09;79.87;100148.69;5107231;28;20429;-65
2021/09/24 04:34:46;;;;;;;10.38;4.70;;;;;;;13.07;79.72;100143.47;5091232;28;20055;-65
2021/09/24 04:37:11;;;;;;;7.20;4.38;;;;;;;13.06;79.70;100149.00;5091424;28;20032;-65
2021/09/24 04:39:37;;;;;;;8.75;4.70;;;;;;;13.02;79.75;100145.75;5091259;28;20043;-64
2021/09/24 04:42:02;;;;;;;10.77;5.15;;;;;;;13.01;79.74;100151.28;5091165;28;20065;-65
2021/09/24 04:44:28;;;;;;;10.23;4.97;;;;;;;13.01;80.14;100146.75;5091466;28;20107;-64
2021/09/24 04:46:54;;;;;;;8.75;4.53;;;;;;;13.02;79.91;100153.81;5091313;28;20008;-65
2021/09/24 04:49:19;;;;;;;8.20;4.32;;;;;;;13.01;80.27;100156.69;5090170;28;20027;-64
2021/09/24 04:51:45;;;;;;;12.20;4.90;;;;;;;13.01;80.12;100154.84;5091787;28;20057;-65
2021/09/24 04:54:10;;;;;;;8.15;4.78;;;;;;;13.01;80.89;100165.59;5092049;28;20024;-63
2021/09/24 04:56:36;;;;;;;10.82;4.43;;;;;;;13.02;80.66;100161.91;5090372;28;20510;-64
2021/09/24 04:59:01;;;;;;;7.72;4.65;;;;;;;13.03;80.38;100154.69;5092039;28;20038;-63
2021/09/24 05:01:27;;;;;;;9.73;4.85;;;;;;;12.99;80.43;100151.44;5091787;28;20055;-63
2021/09/24 05:03:52;;;;;;;9.68;5.03;;;;;;;13.07;80.58;100165.00;5091974;28;20056;-64
2021/09/24 05:06:18;;;;;;;8.15;4.65;;;;;;;13.06;80.90;100162.47;5091948;28;20028;-65
2021/09/24 05:08:43;;;;;;;8.77;4.97;;;;;;;13.04;80.14;100161.75;5091874;28;20032;-63
2021/09/24 05:11:09;;;;;;;9.05;4.43;;;;;;;13.10;80.13;100174.59;5090646;28;20048;-64
2021/09/24 05:13:34;;;;;;;9.43;5.18;;;;;;;13.12;80.17;100173.44;5092028;28;20431;-64
2021/09/24 05:15:59;;;;;;;8.00;4.53;;;;;;;13.14;79.98;100179.53;5089161;28;20291;-63
2021/09/24 05:18:25;;;;;;;9.68;4.70;;;;;;;13.12;80.19;100175.28;5088872;28;20064;-64
2021/09/24 05:20:50;;;;;;;7.43;4.93;;;;;;;13.09;80.18;100165.66;5089911;28;20032;-64
2021/09/24 05:23:16;;;;;;;12.05;4.68;;;;;;;13.19;80.17;100166.44;5090315;28;20021;-63
2021/09/24 05:25:41;;;;;;;7.38;5.20;;;;;;;13.22;79.37;100170.69;5090814;28;20027;-65
2021/09/24 05:28:07;;;;;;;11.50;5.18;;;;;;;13.25;79.68;100176.59;5091477;28;20092;-64
2021/09/24 05:30:32;;;;;;;8.10;5.03;;;;;;;13.32;79.98;100184.91;5090356;28;20059;-64
2021/09/24 05:32:58;;;;;;;9.35;5.32;;;;;;;13.32;79.84;100171.44;5091833;28;20040;-63
2021/09/24 05:35:24;;;;;;;7.30;4.47;;;;;;;13.37;79.65;100177.19;5091182;28;20047;-63
2021/09/24 05:37:50;;;;;;;11.63;5.20;;;;;;;13.40;79.75;100180.44;5091618;28;20084;-64
2021/09/24 05:40:15;;;;;;;12.90;5.15;;;;;;;13.47;79.10;100169.88;5091717;28;20022;-63
2021/09/24 05:42:41;;;;;;;8.38;5.03;;;;;;;13.50;78.95;100170.41;5090265;28;20023;-64
2021/09/24 05:45:11;;;;;;;8.23;4.55;;;;;;;13.58;78.59;100183.09;5091540;28;20446;-63
2021/09/24 05:47:37;;;;;;;9.18;5.15;;;;;;;13.63;78.07;100172.69;5091650;28;20035;-64
2021/09/24 05:50:10;;;;;;;9.77;4.70;;;;;;;13.68;78.20;100181.16;5089151;28;20063;-63
2021/09/24 05:52:36;;;;;;;9.88;5.07;;;;;;;13.68;78.72;100167.69;5089384;28;20567;-64
2021/09/24 05:55:02;;;;;;;9.90;5.05;;;;;;;13.82;78.58;100187.78;5091278;28;20115;-64
2021/09/24 05:57:28;;;;;;;9.50;5.43;;;;;;;13.84;78.38;100186.66;5091398;28;20134;-64
2021/09/24 05:59:53;;;;;;;8.90;5.22;;;;;;;13.92;78.34;100185.84;5091356;28;20079;-64
2021/09/24 06:02:19;;;;;;;11.13;5.13;;;;;;;13.98;78.24;100182.50;5091339;28;20024;-65
2021/09/24 06:04:44;;;;;;;10.52;5.50;;;;;;;14.07;77.44;100184.25;5090706;28;20028;-65
2021/09/24 06:07:10;;;;;;;8.82;5.95;;;;;;;14.08;77.33;100148.19;5090700;28;20028;-66
2021/09/24 06:09:35;;;;;;;10.05;5.93;;;;;;;14.22;76.84;100178.09;5090036;28;20044;-67
2021/09/24 06:12:01;;;;;;;10.48;5.60;;;;;;;14.32;76.45;100153.75;5090704;28;20028;-65
2021/09/24 06:14:26;;;;;;;8.02;5.03;;;;;;;14.39;76.25;100158.31;5090653;28;20533;-65
2021/09/24 06:16:51;;;;;;;7.55;4.47;;;;;;;14.47;76.06;100155.66;5090687;28;20110;-66
2021/09/24 06:19:17;;;;;;;8.38;4.78;;;;;;;14.57;75.60;100159.03;5091034;28;20032;-66
2021/09/24 06:21:45;;;;;;;9.57;4.68;;;;;;;14.67;75.44;100161.63;5090802;28;20523;-66
2021/09/24 06:24:11;;;;;;;6.90;4.78;;;;;;;14.76;75.30;100166.00;5090612;28;20094;-65
2021/09/24 06:26:36;;;;;;;7.18;5.00;;;;;;;14.84;74.68;100164.19;5090713;28;20520;-66
2021/09/24 06:29:02;;;;;;;5.95;4.20;;;;;;;14.90;74.64;100168.09;5090904;28;20036;-66
2021/09/24 06:31:27;;;;;;;6.63;4.63;;;;;;;14.91;74.17;100164.38;5089409;28;20024;-66
2021/09/24 06:33:53;;;;;;;8.30;4.32;;;;;;;15.10;74.03;100185.69;5090389;28;20035;-66
2021/09/24 06:36:19;;;;;;;7.70;4.45;;;;;;;15.20;73.78;100170.16;5089498;28;20488;-66
2021/09/24 06:38:46;;;;;;;6.90;4.65;;;;;;;15.34;72.97;100172.19;5090487;28;20028;-66
2021/09/24 06:41:12;;;;;;;5.75;4.25;;;;;;;15.36;72.95;100167.47;5090575;28;20092;-66
2021/09/24 06:43:38;;;;;;;7.40;4.35;;;;;;;15.44;72.46;100164.78;5090568;28;20028;-66
2021/09/24 06:46:03;;;;;;;8.00;4.75;;;;;;;15.52;72.50;100173.75;5090516;28;20657;-66
2021/09/24 06:48:29;;;;;;;6.60;4.18;;;;;;;15.56;72.15;100161.56;5090602;28;20038;-66
2021/09/24 06:50:54;;;;;;;6.95;4.82;;;;;;;15.68;71.64;100173.72;5090627;28;20048;-66
2021/09/24 06:53:19;;;;;;;8.45;4.80;;;;;;;15.78;71.49;100184.38;5090278;28;20052;-67
2021/09/24 06:55:45;;;;;;;9.88;4.30;;;;;;;15.92;71.18;100197.19;5106170;28;20032;-66
2021/09/24 06:58:10;;;;;;;7.45;4.45;;;;;;;16.00;70.41;100196.31;5090410;28;20020;-66
2021/09/24 07:00:36;;;;;;;7.90;4.75;;;;;;;16.06;70.10;100188.38;5090256;28;20076;-67
2021/09/24 07:03:01;;;;;;;10.80;5.40;;;;;;;16.32;69.11;100212.50;5090167;28;20032;-64
2021/09/24 07:05:27;;;;;;;11.30;5.20;;;;;;;16.51;68.79;100214.81;5090106;28;20037;-63
2021/09/24 07:07:52;;;;;;;9.13;5.28;;;;;;;16.53;68.96;100207.34;5090025;28;20528;-64
2021/09/24 07:10:18;;;;;;;10.15;5.45;;;;;;;16.84;67.33;100221.78;5090102;28;20752;-64
2021/09/24 07:12:45;;;;;;;10.55;5.00;;;;;;;17.06;66.69;100205.56;5088803;28;20181;-64
2021/09/24 07:15:11;;;;;;;8.85;4.82;;;;;;;17.26;66.28;100211.38;5090112;28;20040;-65
2021/09/24 07:17:37;;;;;;;17.88;5.70;;;;;;;17.47;65.21;100195.31;5088882;28;20039;-63
2021/09/24 07:20:04;;;;;;;10.32;5.88;;;;;;;17.72;63.83;100203.06;5089933;28;20036;-63
2021/09/24 07:22:30;;;;;;;10.23;5.50;;;;;;;18.00;62.51;100211.47;5089613;28;20035;-63
2021/09/24 07:24:59;;;;;;;8.48;5.63;;;;;;;18.05;62.94;100195.44;5089870;28;20026;-63
2021/09/24 07:27:24;;;;;;;12.00;6.45;;;;;;;18.21;62.19;100189.84;5089734;28;20042;-65
2021/09/24 07:29:50;;;;;;;10.98;6.25;;;;;;;18.41;61.54;100199.16;5089683;28;20229;-64
2021/09/24 07:32:16;;;;;;;9.93;5.68;;;;;;;18.45;60.95;100199.63;5090051;28;20043;-65
2021/09/24 07:34:43;;;;;;;9.65;5.80;;;;;;;18.56;61.38;100197.28;5089549;28;20479;-65
2021/09/24 07:37:10;;;;;;;10.43;6.25;;;;;;;18.65;61.00;100198.00;5089656;28;20039;-65
2021/09/24 07:39:35;;;;;;;11.48;6.00;;;;;;;18.83;61.09;100201.19;5089814;28;20038;-66
2021/09/24 07:42:01;;;;;;;11.32;6.47;;;;;;;19.02;60.21;100192.44;5089682;28;20645;-65
2021/09/24 07:44:26;;;;;;;10.93;6.47;;;;;;;19.56;58.70;100191.75;5088435;28;20082;-66
2021/09/24 07:46:52;;;;;;;12.48;6.38;;;;;;;19.81;57.60;100190.31;5089295;28;20114;-65
2021/09/24 07:49:18;;;;;;;10.10;6.15;;;;;;;19.99;56.98;100201.56;5089643;28;20480;-66
2021/09/24 07:51:43;;;;;;;9.23;5.90;;;;;;;19.84;57.44;100211.72;5089459;28;20652;-67
2021/09/24 07:54:09;;;;;;;9.63;5.45;;;;;;;19.83;57.30;100206.47;5089796;28;20110;-65
2021/09/24 07:56:34;;;;;;;10.10;6.28;;;;;;;19.68;57.71;100216.56;5089652;28;20055;-66
2021/09/24 07:59:00;;;;;;;10.77;6.22;;;;;;;19.67;58.04;100214.91;5089576;28;20012;-67
2021/09/24 08:01:25;;;;;;;8.35;5.38;;;;;;;19.43;58.76;100224.28;5089313;28;20047;-65
2021/09/24 08:03:51;;;;;;;12.05;6.57;;;;;;;19.26;59.53;100211.97;5089650;28;20028;-66
2021/09/24 08:06:17;;;;;;;10.57;5.75;;;;;;;19.13;60.29;100216.38;5088138;28;20127;-66
2021/09/24 08:08:43;;;;;;;10.30;6.55;;;;;;;19.01;61.00;100218.75;5089347;28;20023;-67
2021/09/24 08:11:08;;;;;;;10.85;6.38;;;;;;;18.89;61.43;100231.16;5089218;28;20040;-67
2021/09/24 08:13:34;;;;;;;9.45;5.68;;;;;;;18.73;62.11;100225.91;5087913;28;20032;-67
2021/09/24 08:15:59;;;;;;;13.05;6.20;;;;;;;18.63;62.89;100235.41;5089295;28;20452;-66
2021/09/24 08:18:25;;;;;;;9.18;5.78;;;;;;;18.56;63.68;100232.59;5087976;28;20038;-67
2021/09/24 08:20:51;;;;;;;7.75;5.90;;;;;;;18.45;63.89;100230.34;5089401;28;20040;-66
2021/09/24 08:23:17;;;;;;;7.82;5.90;;;;;;;18.46;64.52;100232.03;5088205;28;20019;-66
2021/09/24 08:25:42;;;;;;;7.07;5.10;;;;;;;18.44;64.75;100239.50;5087760;28;20372;-66
2021/09/24 08:28:08;;;;;;;6.78;4.72;;;;;;;18.53;64.65;100232.97;5090462;28;20035;-66
2021/09/24 08:30:34;;;;;;;8.00;4.80;;;;;;;18.41;64.82;100234.44;5092987;28;20515;-66
2021/09/24 08:33:01;;;;;;;6.00;5.22;;;;;;;18.43;65.30;100235.13;5092893;28;20511;-67
2021/09/24 08:35:27;;;;;;;8.75;5.03;;;;;;;18.31;65.70;100217.56;5092971;28;20120;-66
2021/09/24 08:37:53;;;;;;;10.00;4.40;;;;;;;18.36;65.47;100227.88;5092769;28;20550;-66
2021/09/24 08:40:20;;;;;;;6.78;4.22;;;;;;;18.35;65.88;100226.19;5093111;28;20026;-65
2021/09/24 08:42:47;;;;;;;8.23;4.25;;;;;;;18.38;66.00;100223.97;5091740;28;20093;-66
2021/09/24 08:45:16;;;;;;;6.75;3.90;;;;;;;18.47;65.37;100220.13;5092796;28;20882;-67
2021/09/24 08:47:42;;;;;;;7.57;3.95;;;;;;;18.48;65.46;100220.97;5092664;28;20031;-66
2021/09/24 08:50:10;;;;;;;3.83;3.30;;;;;;;18.57;65.21;100217.16;5092464;28;20472;-67
2021/09/24 08:52:38;;;;;;;8.43;3.80;;;;;;;18.66;64.80;100211.41;5092548;28;20492;-65
2021/09/24 08:55:06;;;;;;;8.73;3.85;;;;;;;18.73;64.53;100214.22;5092692;28;20023;-65
2021/09/24 08:57:31;;;;;;;4.15;3.63;;;;;;;18.73;64.48;100211.50;5092712;28;20035;-65
2021/09/24 08:59:57;;;;;;;4.93;4.07;;;;;;;18.81;64.58;100217.69;5092479;28;20032;-66
2021/09/24 09:02:22;;;;;;;5.13;3.67;;;;;;;18.87;64.72;100235.94;5092468;28;20036;-66
2021/09/24 09:04:48;;;;;;;5.93;3.85;;;;;;;19.03;63.96;100224.00;5092145;28;20032;-66
2021/09/24 09:07:17;;;;;;;8.82;3.67;;;;;;;19.21;62.42;100213.53;5092416;28;20086;-66
2021/09/24 09:09:45;;;;;;;5.47;3.80;;;;;;;19.23;62.99;100216.91;5090835;28;20477;-66
2021/09/24 09:12:16;;;;;;;6.97;4.00;;;;;;;19.38;62.28;100215.84;5092497;28;20456;-66
2021/09/24 09:14:58;;;;;;;4.35;3.40;;;;;;;19.31;62.88;100206.78;5092200;28;20093;-64
2021/09/24 09:17:26;;;;;;;5.95;4.03;;;;;;;19.48;62.54;100212.81;5090454;28;20057;-64
2021/09/24 09:20:20;;;;;;;6.00;3.63;;;;;;;19.51;62.42;100215.16;5091467;28;20388;-64
2021/09/24 09:23:13;;;;;;;3.90;3.27;;;;;;;19.69;61.27;100210.94;5091365;28;20027;-65
2021/09/24 09:25:42;;;;;;;6.28;3.75;;;;;;;19.78;60.97;100217.94;5088309;28;20727;-65
2021/09/24 09:28:15;;;;;;;4.55;3.55;;;;;;;19.74;61.43;100210.34;5091409;28;20028;-64
2021/09/24 09:30:43;;;;;;;7.93;3.60;;;;;;;19.79;61.52;100211.44;5090957;28;20511;-65
2021/09/24 09:33:15;;;;;;;5.05;3.55;;;;;;;19.93;59.83;100199.59;5091161;28;20442;-65
2021/09/24 09:35:51;;;;;;;6.38;3.63;;;;;;;20.09;59.72;100217.56;5091204;28;20486;-64
2021/09/24 09:38:28;;;;;;;10.32;3.70;;;;;;;20.38;59.14;100205.63;5091188;28;20024;-65
2021/09/24 09:41:05;;;;;;;5.18;3.55;;;;;;;20.74;57.84;100196.19;5090247;28;20024;-65
2021/09/24 09:43:34;;;;;;;7.22;3.28;;;;;;;21.43;54.66;100194.97;5090901;28;20016;-65
2021/09/24 09:46:03;;;;;;;4.18;3.75;;;;;;;21.43;54.51;100173.13;5090819;28;20039;-65
2021/09/24 09:48:29;;;;;;;5.47;3.45;;;;;;;21.61;54.23;100192.44;5090658;28;20536;-66
2021/09/24 09:50:54;;;;;;;7.55;3.55;;;;;;;21.68;53.86;100190.59;5089632;28;20114;-65
2021/09/24 09:53:20;;;;;;;4.88;3.38;;;;;;;21.60;53.88;100198.16;5090858;28;20047;-64
2021/09/24 09:55:59;;;;;;;5.60;3.17;;;;;;;21.54;54.06;100202.53;5090898;28;20036;-65
2021/09/24 09:58:27;;;;;;;9.57;3.60;;;;;;;21.57;53.86;100198.56;5091449;28;20024;-66
2021/09/24 10:01:04;;;;;;;11.10;3.25;;;;;;;21.52;53.92;100204.63;5091328;28;20124;-66
2021/09/24 10:03:39;;;;;;;5.57;3.38;;;;;;;21.49;54.12;100206.94;5091253;28;20050;-65
2021/09/24 10:06:20;;;;;;;5.72;2.90;;;;;;;21.43;54.55;100185.94;5091377;28;20101;-64
2021/09/24 10:08:49;;;;;;;3.53;2.60;;;;;;;21.65;53.50;100198.34;5089802;28;20453;-66
2021/09/24 10:11:14;;;;;;;5.45;3.20;;;;;;;21.77;53.63;100197.53;5091077;28;20512;-64
2021/09/24 10:13:55;;;;;;;5.90;3.28;;;;;;;21.82;54.15;100205.09;5090858;28;20082;-65
2021/09/24 10:16:24;;;;;;;6.35;3.67;;;;;;;21.80;53.44;100190.84;5090866;28;20032;-65
2021/09/24 10:18:50;;;;;;;4.38;2.67;;;;;;;21.89;53.34;100181.34;5090875;28;20040;-66
2021/09/24 10:21:16;;;;;;;5.05;3.00;;;;;;;22.11;52.26;100196.47;5091173;28;20081;-65
2021/09/24 10:23:43;;;;;;;5.47;2.90;;;;;;;22.09;51.73;100193.97;5090560;28;20107;-64
2021/09/24 10:26:15;;;;;;;4.00;2.83;;;;;;;22.14;51.71;100187.84;5090783;28;20028;-64
2021/09/24 10:28:42;;;;;;;6.70;3.17;;;;;;;22.10;52.16;100197.53;5090608;28;20678;-65
2021/09/24 10:31:15;;;;;;;4.50;2.97;;;;;;;22.15;52.02;100184.06;5090824;28;20035;-66
2021/09/24 10:33:55;;;;;;;3.33;2.53;;;;;;;22.19;52.54;100193.53;5090425;28;20793;-64
2021/09/24 10:36:46;;;;;;;4.28;2.92;;;;;;;22.39;51.48;100188.88;5090357;28;20467;-66
2021/09/24 10:39:34;;;;;;;8.38;3.30;;;;;;;22.53;50.50;100196.00;5090455;28;20051;-68
2021/09/24 10:42:23;;;;;;;10.85;3.67;;;;;;;22.75;49.27;100185.63;5090500;28;20035;-64
2021/09/24 10:45:10;;;;;;;6.22;2.70;;;;;;;22.67;49.59;100186.72;5090382;28;20053;-65
2021/09/24 10:48:13;;;;;;;4.38;2.30;;;;;;;22.55;50.32;100182.97;5090473;28;20024;-66
2021/09/24 10:51:01;;;;;;;5.50;3.22;;;;;;;22.61;50.45;100170.34;5082568;28;20550;-67
2021/09/24 10:53:39;;;;;;;4.95;2.63;;;;;;;22.51;50.91;100176.28;5090646;28;20031;-67
2021/09/24 10:56:04;;;;;;;3.88;2.47;;;;;;;22.55;50.10;100166.56;5089064;28;20028;-65
2021/09/24 10:58:30;;;;;;;5.93;2.67;;;;;;;22.46;49.81;100178.75;5090244;28;20425;-66
2021/09/24 11:00:59;;;;;;;6.95;3.05;;;;;;;22.45;49.58;100168.03;5090323;28;20070;-66
2021/09/24 11:03:28;;;;;;;2.88;2.58;;;;;;;22.40;50.02;100178.78;5090212;28;20031;-66
2021/09/24 11:06:08;;;;;;;4.97;2.78;;;;;;;22.32;50.42;100172.47;5090099;28;20111;-66
2021/09/24 11:08:38;;;;;;;4.30;2.70;;;;;;;22.37;49.90;100176.50;5089903;28;20031;-67
2021/09/24 11:11:16;;;;;;;4.70;2.85;;;;;;;22.29;50.17;100170.16;5089979;28;20515;-66
2021/09/24 11:13:50;;;;;;;5.85;2.50;;;;;;;22.23;50.44;100173.78;5105525;28;20031;-65
2021/09/24 11:16:21;;;;;;;4.57;2.50;;;;;;;22.15;50.60;100165.78;5088727;28;20069;-66
2021/09/24 11:18:54;;;;;;;8.25;2.88;;;;;;;22.13;51.04;100173.38;5086556;28;20496;-66
2021/09/24 11:21:40;;;;;;;2.78;2.50;;;;;;;22.12;50.81;100171.69;5089027;28;20052;-67
2021/09/24 11:24:31;;;;;;;3.15;2.30;;;;;;;22.22;50.46;100169.34;5057013;28;20086;-66
2021/09/24 11:26:59;;;;;;;8.05;2.70;;;;;;;22.24;50.19;100167.25;5089218;28;20495;-66